Falconia — H3QI — position and weather

sailwx.info

Track history (hours):
 
Tides and Currents Weather Stations Pressure Air Temp Water Temp Dewpoint Dewpoint Depression Visibility Wind Speed Wind Dir Waves Ship Positions

Falconia

Last reported at 2014-Jul-07 06:08 UTC. Time now 2014-Jul-29 10:51 UTC.
Position N 35°14' E 119°58'.
Warning: this ship's position is 22 days out of date.

Length 88 m; draft 3.2 m.

Type: Cargo ship. MMSI: 353620000.

Date/timePositionNaut miles runAvg speedWind from/ knotsBaromVisibWave heightAir tempDewpointWater temp
2014-Jul-07 06:08N 35°14' E 119°58'5 7.9
2014-Jul-07 05:32N 35°15' E 119°52'7 7.6
2014-Jul-07 04:33N 35°16' E 119°43'8 8.1
2014-Jul-07 03:33N 35°20' E 119°34'3 2.7
2014-Jul-07 02:30N 35°23' E 119°32'0 0.0
2014-Jul-07 01:30N 35°23' E 119°32'0 0.0
2014-Jul-07 00:30N 35°23' E 119°32'0 0.0
2014-Jul-06 23:30N 35°23' E 119°32'0 0.0
2014-Jul-06 22:31N 35°23' E 119°32'0 0.0
2014-Jul-06 21:31N 35°23' E 119°32'0 0.0
2014-Jul-06 20:31N 35°23' E 119°32'0 0.0
2014-Jul-06 19:30N 35°23' E 119°32'0 0.0
2014-Jul-06 18:30N 35°23' E 119°32'0 0.0
2014-Jul-06 17:30N 35°23' E 119°32'0 0.0
2014-Jul-06 16:30N 35°23' E 119°32'0 0.0
2014-Jul-06 15:24N 35°23' E 119°32'0 0.0
2014-Jul-06 14:30N 35°23' E 119°32'0 0.0
2014-Jul-06 13:30N 35°23' E 119°32'0 0.0
2014-Jul-06 12:30N 35°23' E 119°32'0 0.0
2014-Jul-06 11:30N 35°23' E 119°32'0 0.3
2014-Jul-06 10:28N 35°22' E 119°32'6 6.1
2014-Jul-06 09:33N 35°19' E 119°38'1 1.2
2014-Jul-06 08:31N 35°20' E 119°38'0 0.0
2014-Jul-06 07:31N 35°20' E 119°38'0 0.1
2014-Jul-06 06:31N 35°20' E 119°38'0 0.0
2014-Jul-06 05:31N 35°20' E 119°38'0 0.1
2014-Jul-06 04:25N 35°20' E 119°38'0 0.0
2014-Jul-06 03:31N 35°20' E 119°38'0 0.0
2014-Jul-06 02:30N 35°20' E 119°38'0 0.0
2014-Jul-06 01:30N 35°20' E 119°38'0 0.0
2014-Jul-06 00:30N 35°20' E 119°38'0 0.0
2014-Jul-05 23:30N 35°20' E 119°38'0 0.0
2014-Jul-05 22:30N 35°20' E 119°38'0 0.0
2014-Jul-05 21:30N 35°20' E 119°38'0 0.0
2014-Jul-05 20:30N 35°20' E 119°38'0 0.0
2014-Jul-05 19:30N 35°20' E 119°38'0 0.0
2014-Jul-05 18:30N 35°20' E 119°38'0 0.0
2014-Jul-05 17:30N 35°20' E 119°38'0 0.0
2014-Jul-05 16:24N 35°20' E 119°38'0 0.0
2014-Jul-05 15:30N 35°20' E 119°38'0 0.0
2014-Jul-05 14:30N 35°20' E 119°38'0 0.0
2014-Jul-05 13:33N 35°20' E 119°38'0 0.1
2014-Jul-05 12:33N 35°20' E 119°38'0 0.0
2014-Jul-05 11:33N 35°20' E 119°38'0 0.1
2014-Jul-05 10:33N 35°20' E 119°38'0 0.0
2014-Jul-05 09:33N 35°20' E 119°38'0 0.0
2014-Jul-05 08:33N 35°20' E 119°38'0 0.0
2014-Jul-05 07:33N 35°20' E 119°38'0 0.0
2014-Jul-05 06:33N 35°20' E 119°38'0 0.1
2014-Jul-05 05:33N 35°20' E 119°38'2 1.7
2014-Jul-05 04:33N 35°19' E 119°39'1010.4
2014-Jul-05 03:33N 35°15' E 119°51'1211.1
2014-Jul-05 02:30N 35°13' E 120°05'  
Track history (hours):
 
Tides and Currents Weather Stations Pressure Air Temp Water Temp Dewpoint Dewpoint Depression Visibility Wind Speed Wind Dir Waves Ship Positions

Falconia

Last reported at 2014-Jul-07 06:08 UTC. Time now 2014-Jul-29 10:51 UTC.
Position N 35°14' E 119°58'.
Warning: this ship's position is 22 days out of date.

Length 88 m; draft 3.2 m.

Type: Cargo ship. MMSI: 353620000.

Date/timePositionNaut miles runAvg speedWind from/ knotsBaromVisibWave heightAir tempDewpointWater temp
2014-Jul-07 06:08N 35°14' E 119°58'5 7.9
2014-Jul-07 05:32N 35°15' E 119°52'7 7.6
2014-Jul-07 04:33N 35°16' E 119°43'8 8.1
2014-Jul-07 03:33N 35°20' E 119°34'3 2.7
2014-Jul-07 02:30N 35°23' E 119°32'0 0.0
2014-Jul-07 01:30N 35°23' E 119°32'0 0.0
2014-Jul-07 00:30N 35°23' E 119°32'0 0.0
2014-Jul-06 23:30N 35°23' E 119°32'0 0.0
2014-Jul-06 22:31N 35°23' E 119°32'0 0.0
2014-Jul-06 21:31N 35°23' E 119°32'0 0.0
2014-Jul-06 20:31N 35°23' E 119°32'0 0.0
2014-Jul-06 19:30N 35°23' E 119°32'0 0.0
2014-Jul-06 18:30N 35°23' E 119°32'0 0.0
2014-Jul-06 17:30N 35°23' E 119°32'0 0.0
2014-Jul-06 16:30N 35°23' E 119°32'0 0.0
2014-Jul-06 15:24N 35°23' E 119°32'0 0.0
2014-Jul-06 14:30N 35°23' E 119°32'0 0.0
2014-Jul-06 13:30N 35°23' E 119°32'0 0.0
2014-Jul-06 12:30N 35°23' E 119°32'0 0.0
2014-Jul-06 11:30N 35°23' E 119°32'0 0.3
2014-Jul-06 10:28N 35°22' E 119°32'6 6.1
2014-Jul-06 09:33N 35°19' E 119°38'1 1.2
2014-Jul-06 08:31N 35°20' E 119°38'0 0.0
2014-Jul-06 07:31N 35°20' E 119°38'0 0.1
2014-Jul-06 06:31N 35°20' E 119°38'0 0.0
2014-Jul-06 05:31N 35°20' E 119°38'0 0.1
2014-Jul-06 04:25N 35°20' E 119°38'0 0.0
2014-Jul-06 03:31N 35°20' E 119°38'0 0.0
2014-Jul-06 02:30N 35°20' E 119°38'0 0.0
2014-Jul-06 01:30N 35°20' E 119°38'0 0.0
2014-Jul-06 00:30N 35°20' E 119°38'0 0.0
2014-Jul-05 23:30N 35°20' E 119°38'0 0.0
2014-Jul-05 22:30N 35°20' E 119°38'0 0.0
2014-Jul-05 21:30N 35°20' E 119°38'0 0.0
2014-Jul-05 20:30N 35°20' E 119°38'0 0.0
2014-Jul-05 19:30N 35°20' E 119°38'0 0.0
2014-Jul-05 18:30N 35°20' E 119°38'0 0.0
2014-Jul-05 17:30N 35°20' E 119°38'0 0.0
2014-Jul-05 16:24N 35°20' E 119°38'0 0.0
2014-Jul-05 15:30N 35°20' E 119°38'0 0.0
2014-Jul-05 14:30N 35°20' E 119°38'0 0.0
2014-Jul-05 13:33N 35°20' E 119°38'0 0.1
2014-Jul-05 12:33N 35°20' E 119°38'0 0.0
2014-Jul-05 11:33N 35°20' E 119°38'0 0.1
2014-Jul-05 10:33N 35°20' E 119°38'0 0.0
2014-Jul-05 09:33N 35°20' E 119°38'0 0.0
2014-Jul-05 08:33N 35°20' E 119°38'0 0.0
2014-Jul-05 07:33N 35°20' E 119°38'0 0.0
2014-Jul-05 06:33N 35°20' E 119°38'0 0.1
2014-Jul-05 05:33N 35°20' E 119°38'2 1.7
2014-Jul-05 04:33N 35°19' E 119°39'1010.4
2014-Jul-05 03:33N 35°15' E 119°51'1211.1
2014-Jul-05 02:30N 35°13' E 120°05'  

Dump ship's entire track history